Time;durP1;ratioP1;P1;durP2;ratioP2;P2;SDS_P1;SDS_P2;PMS_P1;PMS_P2;Temp;Humidity;BMP_temperature;BMP_pressure;BME280_temperature;BME280_humidity;BME280_pressure;Samples;Min_cycle;Max_cycle;Signal;HPM_P1;HPM_P2
2023/04/07 00:00:24;;;;;;;39.03;32.17;;;7.10;99.90;;;;;;4762251;30;20048;-82
2023/04/07 00:02:50;;;;;;;38.47;30.35;;;7.10;99.90;;;;;;4764332;30;20111;-82
2023/04/07 00:05:16;;;;;;;34.10;28.80;;;7.10;99.90;;;;;;4764550;30;20087;-82
2023/04/07 00:07:41;;;;;;;37.33;31.50;;;7.20;99.90;;;;;;4761898;30;20048;-82
2023/04/07 00:10:07;;;;;;;38.50;31.08;;;7.20;99.90;;;;;;4763088;30;20101;-83
2023/04/07 00:12:33;;;;;;;37.13;30.45;;;7.30;99.90;;;;;;4778580;30;20048;-82
2023/04/07 00:14:59;;;;;;;42.95;32.42;;;7.20;99.90;;;;;;4760325;30;20048;-82
2023/04/07 00:17:24;;;;;;;38.55;31.48;;;7.20;99.90;;;;;;4762802;30;20048;-82
2023/04/07 00:19:50;;;;;;;42.40;32.65;;;7.20;99.90;;;;;;4763395;30;20040;-82
2023/04/07 00:22:16;;;;;;;38.28;30.90;;;7.20;99.90;;;;;;4764437;30;20052;-82
2023/04/07 00:24:42;;;;;;;42.03;33.65;;;7.20;99.90;;;;;;4763683;30;20065;-81
2023/04/07 00:27:08;;;;;;;38.28;31.40;;;7.20;99.90;;;;;;4763829;30;20087;-82
2023/04/07 00:29:33;;;;;;;43.38;32.60;;;7.20;99.90;;;;;;4762870;30;20059;-82
2023/04/07 00:31:59;;;;;;;44.35;34.10;;;7.20;99.90;;;;;;4779230;30;20040;-81
2023/04/07 00:34:24;;;;;;;37.90;31.45;;;7.20;99.90;;;;;;4779863;30;20047;-81
2023/04/07 00:36:53;;;;;;;43.45;32.58;;;7.20;99.90;;;;;;4765069;30;20047;-82
2023/04/07 00:39:19;;;;;;;44.10;33.47;;;7.20;99.90;;;;;;4779497;30;20047;-81
2023/04/07 00:41:45;;;;;;;38.03;31.70;;;7.20;99.90;;;;;;4762632;30;20059;-82
2023/04/07 00:44:11;;;;;;;50.03;35.42;;;7.20;99.90;;;;;;4777777;30;20067;-83
2023/04/07 00:46:37;;;;;;;36.67;31.45;;;7.20;99.90;;;;;;4763866;30;20040;-82
2023/04/07 00:49:03;;;;;;;39.00;31.42;;;7.20;99.90;;;;;;4762216;30;20047;-83
2023/04/07 00:51:28;;;;;;;42.78;33.47;;;7.20;99.90;;;;;;4764660;30;20496;-82
2023/04/07 00:53:54;;;;;;;39.03;31.85;;;7.20;99.90;;;;;;4763233;30;20050;-80
2023/04/07 00:56:20;;;;;;;36.95;30.13;;;7.20;99.90;;;;;;4761710;30;20123;-81
2023/04/07 00:58:46;;;;;;;36.75;32.22;;;7.30;99.90;;;;;;4761106;30;20036;-82
2023/04/07 01:01:15;;;;;;;31.63;28.23;;;7.30;99.90;;;;;;4761369;30;20062;-83
2023/04/07 01:04:01;;;;;;;40.10;32.17;;;7.30;99.90;;;;;;4764164;30;20051;-81
2023/04/07 01:06:32;;;;;;;40.65;31.85;;;7.30;99.90;;;;;;4764209;30;20506;-83
2023/04/07 01:09:13;;;;;;;41.60;32.67;;;7.30;99.90;;;;;;4780927;30;20062;-82
2023/04/07 01:11:41;;;;;;;40.85;32.22;;;7.30;99.90;;;;;;4765634;30;20051;-83
2023/04/07 01:14:10;;;;;;;42.17;32.08;;;7.20;99.90;;;;;;4777219;30;20040;-81
2023/04/07 01:16:47;;;;;;;38.65;31.85;;;7.30;99.90;;;;;;4762484;30;20055;-82
2023/04/07 01:20:02;;;;;;;46.42;33.50;;;7.30;99.90;;;;;;4763339;30;20055;-82
2023/04/07 01:22:33;;;;;;;47.25;33.95;;;7.30;99.90;;;;;;4740739;30;20071;-82
2023/04/07 01:25:14;;;;;;;47.10;34.47;;;7.30;99.90;;;;;;4783804;30;20051;-83
2023/04/07 01:27:51;;;;;;;50.35;34.67;;;7.30;99.90;;;;;;4763876;30;20097;-83
2023/04/07 01:30:18;;;;;;;44.20;32.97;;;7.30;99.90;;;;;;4768588;30;20058;-82
2023/04/07 01:32:49;;;;;;;44.20;33.42;;;7.20;99.90;;;;;;4782962;30;20061;-82
2023/04/07 01:35:16;;;;;;;48.30;35.10;;;7.30;99.90;;;;;;4765356;30;20051;-82
2023/04/07 01:37:45;;;;;;;41.72;33.72;;;7.20;99.90;;;;;;4760621;30;20178;-84
2023/04/07 01:40:11;;;;;;;55.72;35.03;;;7.20;99.90;;;;;;4757835;30;20044;-82
2023/04/07 01:42:38;;;;;;;47.92;34.25;;;7.20;99.90;;;;;;4762225;30;20099;-82
2023/04/07 01:45:05;;;;;;;46.60;33.22;;;7.30;99.90;;;;;;4762769;30;20134;-82
2023/04/07 01:47:32;;;;;;;39.55;31.40;;;7.20;99.90;;;;;;4760062;30;20058;-82
2023/04/07 01:49:59;;;;;;;40.15;30.23;;;7.30;99.90;;;;;;4777450;30;20059;-81
2023/04/07 01:52:29;;;;;;;45.90;34.20;;;7.20;99.90;;;;;;4762748;30;20075;-82
2023/04/07 01:54:56;;;;;;;43.55;31.95;;;7.20;99.90;;;;;;4764602;30;20047;-82
2023/04/07 01:57:22;;;;;;;42.22;32.83;;;7.30;99.90;;;;;;4765855;30;20044;-82
2023/04/07 01:59:47;;;;;;;42.92;31.85;;;7.20;99.90;;;;;;4765612;30;20055;-82
2023/04/07 02:02:13;;;;;;;43.03;31.00;;;7.30;99.90;;;;;;4761802;30;20055;-83
2023/04/07 02:04:55;;;;;;;38.65;30.58;;;7.30;99.90;;;;;;4767026;30;20151;-82
2023/04/07 02:07:44;;;;;;;31.40;27.10;;;7.30;99.90;;;;;;4765047;30;20106;-81
2023/04/07 02:10:14;;;;;;;33.28;27.13;;;7.30;99.90;;;;;;4771317;30;20060;-82
2023/04/07 02:12:41;;;;;;;39.50;29.85;;;7.30;99.90;;;;;;4762622;30;20047;-81
2023/04/07 02:15:10;;;;;;;40.90;30.08;;;7.30;99.90;;;;;;4764404;30;20052;-81
2023/04/07 02:17:38;;;;;;;40.63;31.40;;;7.30;99.90;;;;;;4763519;30;20048;-83
2023/04/07 02:20:06;;;;;;;42.10;31.73;;;7.30;99.90;;;;;;4763699;30;20051;-81
2023/04/07 02:22:32;;;;;;;40.08;31.00;;;7.30;99.90;;;;;;4763450;30;20125;-84
2023/04/07 02:24:58;;;;;;;40.35;31.15;;;7.30;99.90;;;;;;4765301;30;20047;-83
2023/04/07 02:27:23;;;;;;;46.72;32.10;;;7.30;99.90;;;;;;4764277;30;20193;-82
2023/04/07 02:29:49;;;;;;;35.55;29.13;;;7.30;99.90;;;;;;4782178;30;20051;-81
2023/04/07 02:32:16;;;;;;;43.90;30.52;;;7.30;99.90;;;;;;4781997;30;20047;-82
2023/04/07 02:34:42;;;;;;;38.70;30.80;;;7.30;99.90;;;;;;4779739;30;20048;-82
2023/04/07 02:37:07;;;;;;;34.28;29.52;;;7.30;99.90;;;;;;4782601;30;20089;-82
2023/04/07 02:39:33;;;;;;;43.58;32.50;;;7.30;99.90;;;;;;4764395;30;20043;-82
2023/04/07 02:41:58;;;;;;;35.75;28.15;;;7.30;99.90;;;;;;4765775;30;20044;-82
2023/04/07 02:44:24;;;;;;;36.72;29.02;;;7.20;99.90;;;;;;4765228;30;20071;-82
2023/04/07 02:46:50;;;;;;;44.72;32.42;;;7.30;99.90;;;;;;4782159;30;20051;-82
2023/04/07 02:49:15;;;;;;;34.58;27.70;;;7.30;99.90;;;;;;4766047;30;20039;-82
2023/04/07 02:51:41;;;;;;;46.58;30.95;;;7.20;99.90;;;;;;4762817;30;20044;-83
2023/04/07 02:54:06;;;;;;;39.45;29.13;;;7.20;99.90;;;;;;4778249;30;20047;-82
2023/04/07 02:56:32;;;;;;;36.15;28.40;;;7.30;99.90;;;;;;4762639;30;20051;-82
2023/04/07 02:58:58;;;;;;;36.45;27.35;;;7.20;99.90;;;;;;4778109;30;20044;-82
2023/04/07 03:01:23;;;;;;;30.30;25.33;;;7.20;99.90;;;;;;4763221;30;20048;-82
2023/04/07 03:03:49;;;;;;;32.97;26.00;;;7.20;99.90;;;;;;4780905;30;20044;-82
2023/04/07 03:06:14;;;;;;;30.33;25.80;;;7.20;99.90;;;;;;4764797;30;20043;-82
2023/04/07 03:08:41;;;;;;;34.53;26.90;;;7.20;99.90;;;;;;4779182;30;20395;-82
2023/04/07 03:11:06;;;;;;;36.67;27.50;;;7.20;99.90;;;;;;4762257;30;20571;-82
2023/04/07 03:13:32;;;;;;;36.10;27.27;;;7.20;99.90;;;;;;4762824;30;20063;-82
2023/04/07 03:15:57;;;;;;;34.88;26.80;;;7.20;99.90;;;;;;4763094;30;20086;-82
2023/04/07 03:18:23;;;;;;;31.42;25.90;;;7.20;99.90;;;;;;4764030;30;20032;-82
2023/04/07 03:20:49;;;;;;;31.38;26.40;;;7.20;99.90;;;;;;4779241;30;20127;-82
2023/04/07 03:23:14;;;;;;;29.38;25.80;;;7.20;99.90;;;;;;4778021;30;20047;-81
2023/04/07 03:25:40;;;;;;;31.27;25.52;;;7.20;99.90;;;;;;4776722;30;20047;-83
2023/04/07 03:28:06;;;;;;;34.80;26.30;;;7.20;99.90;;;;;;4776391;30;20051;-82
2023/04/07 03:30:31;;;;;;;35.67;28.23;;;7.20;99.90;;;;;;4756384;30;20086;-81
2023/04/07 03:32:57;;;;;;;38.30;28.65;;;7.20;99.90;;;;;;4758606;30;20052;-81
2023/04/07 03:35:22;;;;;;;34.25;27.63;;;7.20;99.90;;;;;;4776771;30;20131;-81
2023/04/07 03:37:48;;;;;;;35.40;28.95;;;7.20;99.90;;;;;;4773506;30;20058;-81
2023/04/07 03:40:14;;;;;;;36.47;28.73;;;7.20;99.90;;;;;;4773828;30;20050;-80
2023/04/07 03:42:39;;;;;;;34.70;28.67;;;7.20;99.90;;;;;;4758132;30;20174;-81
2023/04/07 03:45:05;;;;;;;36.88;28.90;;;7.20;99.90;;;;;;4757352;30;20081;-81
2023/04/07 03:47:31;;;;;;;34.65;28.95;;;7.20;99.90;;;;;;4757092;30;20051;-81
2023/04/07 03:49:56;;;;;;;39.88;29.83;;;7.20;99.90;;;;;;4757729;30;20044;-83
2023/04/07 03:52:22;;;;;;;35.30;28.20;;;7.10;99.90;;;;;;4758567;30;20048;-81
2023/04/07 03:54:47;;;;;;;39.97;30.98;;;7.20;99.90;;;;;;4757159;30;20068;-82
2023/04/07 03:57:13;;;;;;;43.90;31.83;;;7.20;99.90;;;;;;4759667;30;20055;-79
2023/04/07 03:59:39;;;;;;;42.03;31.27;;;7.20;99.90;;;;;;4756085;30;20040;-82
2023/04/07 04:02:05;;;;;;;39.80;29.90;;;7.20;99.90;;;;;;4772583;30;20035;-83
2023/04/07 04:04:30;;;;;;;37.67;29.75;;;7.10;99.90;;;;;;4762424;30;20890;-82
2023/04/07 04:06:56;;;;;;;39.67;30.35;;;7.20;99.90;;;;;;4763243;30;20047;-82
2023/04/07 04:09:21;;;;;;;34.92;29.17;;;7.10;99.90;;;;;;4761239;30;20429;-82
2023/04/07 04:11:47;;;;;;;39.33;29.42;;;7.20;99.90;;;;;;4759485;30;20054;-82
2023/04/07 04:14:12;;;;;;;36.47;28.92;;;7.20;99.90;;;;;;4776854;30;20051;-81
2023/04/07 04:16:38;;;;;;;38.85;29.67;;;7.20;99.90;;;;;;4759097;30;20040;-81
2023/04/07 04:19:03;;;;;;;35.22;28.67;;;7.10;99.90;;;;;;4759342;30;20044;-82
2023/04/07 04:21:30;;;;;;;36.75;29.30;;;7.10;99.90;;;;;;4759150;30;20044;-81
2023/04/07 04:23:55;;;;;;;38.30;29.17;;;7.10;99.90;;;;;;4776337;30;20056;-81
2023/04/07 04:26:24;;;;;;;35.15;29.45;;;7.20;99.90;;;;;;4759716;30;20044;-81
2023/04/07 04:28:50;;;;;;;36.70;29.27;;;7.10;99.90;;;;;;4760612;30;20107;-81
2023/04/07 04:31:16;;;;;;;35.05;29.40;;;7.10;99.90;;;;;;4782458;30;20097;-82
2023/04/07 04:33:41;;;;;;;39.05;29.30;;;7.10;99.90;;;;;;4763292;30;20962;-81
2023/04/07 04:36:07;;;;;;;38.63;30.13;;;7.10;99.90;;;;;;4750555;30;20052;-81
2023/04/07 04:38:32;;;;;;;39.58;29.73;;;7.60;99.90;;;;;;4776274;30;20044;-82
2023/04/07 04:40:58;;;;;;;35.60;27.48;;;7.20;99.90;;;;;;4762716;30;20723;-81
2023/04/07 04:43:24;;;;;;;33.22;27.73;;;7.10;99.90;;;;;;4761146;30;20066;-82
2023/04/07 04:45:49;;;;;;;34.22;27.42;;;7.10;99.90;;;;;;4761161;30;20107;-82
2023/04/07 04:48:16;;;;;;;29.45;25.10;;;7.10;99.90;;;;;;4761735;30;20503;-82
2023/04/07 04:50:42;;;;;;;30.50;25.83;;;7.10;99.90;;;;;;4759730;30;20075;-82
2023/04/07 04:53:09;;;;;;;28.00;24.50;;;7.10;99.90;;;;;;4760731;30;20071;-81
2023/04/07 04:55:34;;;;;;;35.63;28.77;;;7.10;99.90;;;;;;4755579;30;20067;-81
2023/04/07 04:58:00;;;;;;;30.40;26.67;;;7.10;99.90;;;;;;4777768;30;20059;-81
2023/04/07 05:00:26;;;;;;;29.67;25.17;;;7.10;99.90;;;;;;4779510;30;20110;-81
2023/04/07 05:02:51;;;;;;;33.40;26.45;;;7.10;99.90;;;;;;4762763;30;20076;-81
2023/04/07 05:05:17;;;;;;;31.55;27.10;;;7.00;99.90;;;;;;4776901;30;20142;-80
2023/04/07 05:07:42;;;;;;;37.00;28.40;;;7.10;99.90;;;;;;4756879;30;20375;-81
2023/04/07 05:10:08;;;;;;;31.92;26.92;;;7.00;99.90;;;;;;4762951;30;20060;-81
2023/04/07 05:12:34;;;;;;;31.52;25.65;;;7.10;99.90;;;;;;4766255;30;20085;-82
2023/04/07 05:15:00;;;;;;;31.83;27.20;;;7.10;99.90;;;;;;4744974;30;20058;-81
2023/04/07 05:17:25;;;;;;;34.28;28.17;;;7.00;99.90;;;;;;4774142;30;20469;-82
2023/04/07 05:19:51;;;;;;;31.90;25.38;;;7.10;99.90;;;;;;4753998;30;20052;-79
2023/04/07 05:22:16;;;;;;;35.50;27.55;;;7.10;99.90;;;;;;4755612;30;20055;-82
2023/04/07 05:24:42;;;;;;;30.52;25.55;;;7.10;99.90;;;;;;4752778;30;21386;-81
2023/04/07 05:27:07;;;;;;;32.22;26.65;;;7.10;99.90;;;;;;4754078;30;20081;-82
2023/04/07 05:29:33;;;;;;;36.65;28.23;;;7.10;99.90;;;;;;4760323;30;20060;-80
2023/04/07 05:32:00;;;;;;;35.50;29.48;;;7.10;99.90;;;;;;4754548;30;20082;-81
2023/04/07 05:34:26;;;;;;;35.40;27.02;;;7.00;99.90;;;;;;4755772;30;20044;-81
2023/04/07 05:36:51;;;;;;;34.35;28.33;;;7.00;99.90;;;;;;4754390;30;20048;-81
2023/04/07 05:39:17;;;;;;;33.58;27.73;;;7.10;99.90;;;;;;4756734;30;20044;-82
2023/04/07 05:41:43;;;;;;;35.08;28.20;;;7.00;99.90;;;;;;4754422;30;20059;-81
2023/04/07 05:44:08;;;;;;;34.33;27.88;;;7.10;99.90;;;;;;4775383;30;20036;-80
2023/04/07 05:46:34;;;;;;;34.95;27.85;;;7.00;99.90;;;;;;4756048;30;20048;-80
2023/04/07 05:48:59;;;;;;;30.95;26.90;;;7.10;99.90;;;;;;4771503;30;20684;-82
2023/04/07 05:51:25;;;;;;;41.92;30.45;;;7.10;99.90;;;;;;4752449;30;20109;-80
2023/04/07 05:53:51;;;;;;;33.10;27.42;;;7.00;99.90;;;;;;4771597;30;20487;-81
2023/04/07 05:56:16;;;;;;;31.75;27.38;;;7.00;99.90;;;;;;4755062;30;20048;-80
2023/04/07 05:58:42;;;;;;;32.35;26.77;;;7.10;99.90;;;;;;4771629;30;20118;-80
2023/04/07 06:01:07;;;;;;;33.92;27.75;;;7.00;99.90;;;;;;4753419;30;20143;-77
2023/04/07 06:03:33;;;;;;;34.78;27.45;;;7.10;99.90;;;;;;4753000;30;20056;-81
2023/04/07 06:05:58;;;;;;;33.70;28.10;;;7.00;99.90;;;;;;4752634;30;20054;-80
2023/04/07 06:08:24;;;;;;;36.50;29.38;;;7.10;99.90;;;;;;4753045;30;20113;-81
2023/04/07 06:10:50;;;;;;;31.88;27.88;;;7.00;99.90;;;;;;4756799;30;20077;-79
2023/04/07 06:13:15;;;;;;;36.08;29.42;;;7.10;99.90;;;;;;4754330;30;20098;-79
2023/04/07 06:15:41;;;;;;;36.17;28.45;;;7.10;99.90;;;;;;4768486;30;20044;-79
2023/04/07 06:18:07;;;;;;;38.65;29.77;;;7.10;99.90;;;;;;4751524;30;20102;-80
2023/04/07 06:20:32;;;;;;;35.15;28.85;;;7.10;99.90;;;;;;4770494;30;20067;-80
2023/04/07 06:22:58;;;;;;;37.03;30.02;;;7.00;99.90;;;;;;4753122;30;20044;-79
2023/04/07 06:25:24;;;;;;;38.22;30.67;;;7.10;99.90;;;;;;4751941;30;20054;-80
2023/04/07 06:27:49;;;;;;;39.28;30.40;;;7.10;99.90;;;;;;4767912;30;20056;-80
2023/04/07 06:30:15;;;;;;;40.92;31.20;;;7.10;99.90;;;;;;4739727;30;20112;-81
2023/04/07 06:32:41;;;;;;;36.53;29.73;;;7.10;99.90;;;;;;4751835;30;20639;-79
2023/04/07 06:35:07;;;;;;;37.35;28.83;;;7.10;99.90;;;;;;4751911;30;20141;-79
2023/04/07 06:37:32;;;;;;;37.72;29.02;;;7.20;99.90;;;;;;4753150;30;20044;-81
2023/04/07 06:39:58;;;;;;;42.28;31.88;;;7.20;99.90;;;;;;4762417;30;20043;-80
2023/04/07 06:42:24;;;;;;;40.25;30.00;;;7.20;99.90;;;;;;4765096;30;20039;-82
2023/04/07 06:44:49;;;;;;;32.65;27.67;;;7.20;99.90;;;;;;4757800;30;20079;-80
2023/04/07 06:47:15;;;;;;;37.45;30.27;;;7.20;99.90;;;;;;4755898;30;20055;-79
2023/04/07 06:49:41;;;;;;;36.42;28.98;;;7.20;99.90;;;;;;4767425;30;20051;-83
2023/04/07 06:52:06;;;;;;;35.80;29.70;;;7.30;99.90;;;;;;4750427;30;20075;-80
2023/04/07 06:54:32;;;;;;;40.10;30.75;;;7.30;99.90;;;;;;4748757;30;20040;-81
2023/04/07 06:56:57;;;;;;;39.90;29.60;;;7.30;99.90;;;;;;4750869;30;20631;-79
2023/04/07 06:59:23;;;;;;;37.28;30.15;;;7.40;99.90;;;;;;4748246;30;20066;-79
2023/04/07 07:01:49;;;;;;;33.40;29.40;;;7.30;99.90;;;;;;4763805;30;20051;-79
2023/04/07 07:04:14;;;;;;;36.70;28.50;;;7.30;99.90;;;;;;4749387;30;20047;-82
2023/04/07 07:06:40;;;;;;;33.88;28.38;;;7.30;99.90;;;;;;4763506;30;20055;-80
2023/04/07 07:09:05;;;;;;;31.73;27.10;;;7.30;99.90;;;;;;4765291;30;20059;-80
2023/04/07 07:11:31;;;;;;;31.42;27.58;;;7.40;99.90;;;;;;4752655;30;20510;-80
2023/04/07 07:13:57;;;;;;;31.17;26.25;;;7.40;99.90;;;;;;4754533;30;20050;-80
2023/04/07 07:16:25;;;;;;;30.60;25.35;;;7.40;99.90;;;;;;4752655;30;20052;-81
2023/04/07 07:18:51;;;;;;;33.13;26.55;;;7.50;99.90;;;;;;4769632;30;20039;-80
2023/04/07 07:21:17;;;;;;;27.13;24.25;;;7.50;99.90;;;;;;4768386;30;20044;-79
2023/04/07 07:23:43;;;;;;;33.20;26.40;;;7.50;99.90;;;;;;4767974;30;20101;-80
2023/04/07 07:26:09;;;;;;;27.92;24.88;;;7.50;99.90;;;;;;4763025;30;20550;-80
2023/04/07 07:28:35;;;;;;;28.88;25.05;;;7.50;99.90;;;;;;4760135;30;20047;-81
2023/04/07 07:31:15;;;;;;;27.80;24.90;;;7.60;99.90;;;;;;4743312;30;20190;-81
2023/04/07 07:33:42;;;;;;;26.83;24.00;;;7.60;99.90;;;;;;4757954;30;20074;-82
2023/04/07 07:36:09;;;;;;;26.58;23.77;;;7.60;99.90;;;;;;4759087;30;20461;-81
2023/04/07 07:38:35;;;;;;;26.38;23.63;;;7.60;99.90;;;;;;4750552;30;20039;-80
2023/04/07 07:41:00;;;;;;;26.48;23.65;;;7.60;99.90;;;;;;4747729;30;20109;-81
2023/04/07 07:43:26;;;;;;;25.70;23.08;;;7.80;99.90;;;;;;4747415;30;20108;-81
2023/04/07 07:45:52;;;;;;;33.05;26.10;;;7.70;99.90;;;;;;4758702;30;20089;-81
2023/04/07 07:48:17;;;;;;;23.27;20.95;;;7.80;99.90;;;;;;4758164;30;20047;-82
2023/04/07 07:50:43;;;;;;;23.10;19.90;;;7.80;99.90;;;;;;4747441;30;20043;-81
2023/04/07 07:53:09;;;;;;;24.90;21.02;;;7.80;99.90;;;;;;4759933;30;20403;-81
2023/04/07 07:55:35;;;;;;;22.20;19.83;;;7.90;99.90;;;;;;4759220;30;20044;-81
2023/04/07 07:58:01;;;;;;;21.48;19.35;;;8.00;99.90;;;;;;4760576;30;20125;-81
2023/04/07 08:00:27;;;;;;;21.83;19.70;;;8.00;99.90;;;;;;4761623;30;20050;-81
2023/04/07 08:02:53;;;;;;;21.02;18.95;;;8.10;99.90;;;;;;4749236;30;20050;-79
2023/04/07 08:05:19;;;;;;;22.08;19.88;;;8.10;99.90;;;;;;4750072;30;20613;-78
2023/04/07 08:07:45;;;;;;;20.05;18.15;;;8.10;99.90;;;;;;4760038;30;20083;-80
2023/04/07 08:10:12;;;;;;;18.58;16.67;;;8.10;99.90;;;;;;4747808;30;20048;-80
2023/04/07 08:12:38;;;;;;;19.10;17.15;;;8.20;99.90;;;;;;4750949;30;20103;-82
2023/04/07 08:15:06;;;;;;;20.15;18.15;;;8.20;99.90;;;;;;4764378;30;20111;-81
2023/04/07 08:17:32;;;;;;;19.67;17.85;;;8.20;99.90;;;;;;4748945;30;20047;-82
2023/04/07 08:20:00;;;;;;;19.02;17.17;;;8.30;99.90;;;;;;4749517;30;20063;-83
2023/04/07 08:22:26;;;;;;;19.67;17.80;;;8.30;99.90;;;;;;4746649;30;20047;-82
2023/04/07 08:24:51;;;;;;;17.65;16.00;;;8.30;99.90;;;;;;4764916;30;20089;-82
2023/04/07 08:27:17;;;;;;;15.63;14.18;;;8.50;99.90;;;;;;4746516;30;20055;-81
2023/04/07 08:29:42;;;;;;;16.67;15.07;;;8.40;99.90;;;;;;4749462;30;20464;-82
2023/04/07 08:32:08;;;;;;;16.50;14.93;;;8.40;99.90;;;;;;4761892;30;20053;-81
2023/04/07 08:34:34;;;;;;;15.60;14.15;;;8.50;99.90;;;;;;4745246;30;20087;-80
2023/04/07 08:37:00;;;;;;;15.35;13.95;;;8.40;99.90;;;;;;4745025;30;20491;-81
2023/04/07 08:39:26;;;;;;;18.63;15.40;;;8.50;99.90;;;;;;4745914;30;20551;-82
2023/04/07 08:41:54;;;;;;;14.35;13.05;;;8.50;99.90;;;;;;4745610;30;20052;-82
2023/04/07 08:44:22;;;;;;;14.85;13.55;;;8.50;99.90;;;;;;4744102;30;20063;-80
2023/04/07 08:46:49;;;;;;;12.48;11.30;;;8.80;99.90;;;;;;4739503;30;20067;-79
2023/04/07 08:49:17;;;;;;;14.40;13.20;;;8.50;99.90;;;;;;4740187;30;20082;-79
2023/04/07 08:51:48;;;;;;;11.90;10.80;;;8.60;99.90;;;;;;4742360;30;20059;-76
2023/04/07 08:54:17;;;;;;;12.60;11.40;;;8.60;99.90;;;;;;4744343;30;20145;-81
2023/04/07 08:56:43;;;;;;;12.35;11.25;;;8.70;99.90;;;;;;4759399;30;20056;-81
2023/04/07 08:59:11;;;;;;;12.52;11.32;;;8.70;99.90;;;;;;4762276;30;20059;-80
2023/04/07 09:01:38;;;;;;;13.23;12.02;;;8.70;99.90;;;;;;4759113;30;20055;-81
2023/04/07 09:04:06;;;;;;;13.60;12.38;;;8.10;99.90;;;;;;4748115;30;20051;-81
2023/04/07 09:06:32;;;;;;;14.60;13.20;;;8.80;99.90;;;;;;4746554;30;20047;-81
2023/04/07 09:08:59;;;;;;;15.63;14.10;;;8.90;99.90;;;;;;4742184;30;20097;-81
2023/04/07 09:11:26;;;;;;;14.52;13.15;;;8.80;99.90;;;;;;4765169;30;20056;-81
2023/04/07 09:13:51;;;;;;;14.25;13.02;;;8.80;99.90;;;;;;4765926;30;20056;-81
2023/04/07 09:16:17;;;;;;;14.30;12.85;;;8.80;99.90;;;;;;4745852;30;20104;-80
2023/04/07 09:18:43;;;;;;;14.02;12.85;;;8.90;99.90;;;;;;4752335;30;20052;-81
2023/04/07 09:21:10;;;;;;;16.30;13.93;;;8.80;99.90;;;;;;4766110;30;20492;-81
2023/04/07 09:23:40;;;;;;;15.60;14.27;;;8.80;99.90;;;;;;4748729;30;20161;-81
2023/04/07 09:26:28;;;;;;;15.73;14.13;;;8.90;99.90;;;;;;4737004;30;20097;-81
2023/04/07 09:28:57;;;;;;;15.48;14.18;;;8.90;99.90;;;;;;4762022;30;20055;-81
2023/04/07 09:31:41;;;;;;;14.60;13.20;;;8.90;99.90;;;;;;4746568;30;20074;-80
2023/04/07 09:34:26;;;;;;;14.98;13.57;;;8.90;99.90;;;;;;4747989;30;20402;-81
2023/04/07 09:36:52;;;;;;;15.60;14.20;;;8.90;99.90;;;;;;4747187;30;20051;-81
2023/04/07 09:39:18;;;;;;;14.13;13.00;;;8.90;99.90;;;;;;4743845;30;20078;-81
2023/04/07 09:41:44;;;;;;;14.57;13.27;;;9.00;99.90;;;;;;4744753;30;20048;-80
2023/04/07 09:44:09;;;;;;;13.93;12.73;;;9.00;99.90;;;;;;4765304;30;20163;-80
2023/04/07 09:46:35;;;;;;;14.18;12.95;;;9.00;99.90;;;;;;4749495;30;20043;-81
2023/04/07 09:49:06;;;;;;;15.25;13.95;;;9.00;99.90;;;;;;4749777;30;20104;-80
2023/04/07 09:51:32;;;;;;;14.10;12.80;;;9.00;99.90;;;;;;4748053;30;20132;-82
2023/04/07 09:53:58;;;;;;;14.32;13.02;;;8.90;99.90;;;;;;4748568;30;20054;-81
2023/04/07 09:56:25;;;;;;;14.27;12.98;;;8.90;99.90;;;;;;4743006;30;20520;-78
2023/04/07 09:58:52;;;;;;;15.75;14.25;;;8.80;99.90;;;;;;4756633;30;20522;-78
2023/04/07 10:01:18;;;;;;;14.95;13.55;;;9.00;99.90;;;;;;4768678;30;20066;-81
2023/04/07 10:03:45;;;;;;;14.27;13.07;;;9.00;99.90;;;;;;4749667;30;20082;-81
2023/04/07 10:06:12;;;;;;;14.10;12.90;;;9.00;99.90;;;;;;4766047;30;20112;-81
2023/04/07 10:08:43;;;;;;;13.63;12.43;;;9.10;99.90;;;;;;4750998;30;20159;-83
2023/04/07 10:11:09;;;;;;;12.98;11.88;;;9.10;99.90;;;;;;4749597;30;20052;-81
2023/04/07 10:13:38;;;;;;;13.18;12.07;;;9.10;99.90;;;;;;4765540;30;20054;-82
2023/04/07 10:16:06;;;;;;;12.27;11.00;;;9.10;99.90;;;;;;4765417;30;20089;-81
2023/04/07 10:18:33;;;;;;;11.70;10.70;;;9.10;99.90;;;;;;4756041;30;20044;-82
2023/04/07 10:21:06;;;;;;;11.80;10.80;;;9.00;99.90;;;;;;4754387;30;20079;-81
2023/04/07 10:24:03;;;;;;;12.30;11.30;;;9.00;99.90;;;;;;4768430;30;20040;-83
2023/04/07 10:26:32;;;;;;;11.57;10.57;;;9.00;99.90;;;;;;4753948;30;20056;-82
2023/04/07 10:29:05;;;;;;;12.02;10.93;;;9.00;99.90;;;;;;4768126;30;20442;-82
2023/04/07 10:31:32;;;;;;;11.07;10.07;;;9.00;99.90;;;;;;4749668;30;20048;-83
2023/04/07 10:33:57;;;;;;;10.85;9.95;;;9.00;99.90;;;;;;4749060;30;20059;-83
2023/04/07 10:36:23;;;;;;;9.40;8.60;;;9.00;99.90;;;;;;4764079;30;20047;-83
2023/04/07 10:39:07;;;;;;;8.82;8.00;;;9.10;99.90;;;;;;4751400;30;20075;-82
2023/04/07 10:41:38;;;;;;;8.77;8.07;;;9.10;99.90;;;;;;4748575;30;20452;-80
2023/04/07 10:44:05;;;;;;;7.50;6.90;;;9.10;99.90;;;;;;4750331;30;20051;-80
2023/04/07 10:46:47;;;;;;;8.32;7.53;;;9.10;99.90;;;;;;4764199;30;20056;-81
2023/04/07 10:49:13;;;;;;;6.30;5.53;;;9.10;99.90;;;;;;4768104;30;20047;-80
2023/04/07 10:51:39;;;;;;;5.13;4.72;;;9.10;99.90;;;;;;4767431;30;20055;-80
2023/04/07 10:54:21;;;;;;;5.85;5.35;;;9.20;99.90;;;;;;4740470;30;20066;-80
2023/04/07 10:57:02;;;;;;;5.38;4.95;;;9.20;99.90;;;;;;4754940;30;20435;-81
2023/04/07 10:59:33;;;;;;;4.95;4.57;;;9.20;99.90;;;;;;4754334;30;20059;-80
2023/04/07 11:02:11;;;;;;;5.68;4.88;;;9.80;99.90;;;;;;4752688;30;20068;-80
2023/04/07 11:04:38;;;;;;;5.00;4.57;;;9.40;99.90;;;;;;4769508;30;20102;-80
2023/04/07 11:07:03;;;;;;;5.63;5.00;;;9.50;99.90;;;;;;4765406;30;20052;-80
2023/04/07 11:09:29;;;;;;;5.47;5.07;;;9.70;99.90;;;;;;4765052;30;20309;-81
2023/04/07 11:11:55;;;;;;;5.22;4.70;;;9.90;99.90;;;;;;4753113;30;20495;-80
2023/04/07 11:14:27;;;;;;;6.20;4.95;;;9.90;99.90;;;;;;4769383;30;20186;-80
2023/04/07 11:16:53;;;;;;;4.85;4.50;;;9.90;99.90;;;;;;4748407;30;20135;-80
2023/04/07 11:19:18;;;;;;;4.70;4.30;;;9.80;99.90;;;;;;4764494;30;20047;-80
2023/04/07 11:21:44;;;;;;;5.28;4.78;;;9.80;99.90;;;;;;4766868;30;20060;-80
2023/04/07 11:24:10;;;;;;;4.78;4.38;;;9.80;99.90;;;;;;4766836;30;20086;-80
2023/04/07 11:26:38;;;;;;;5.05;4.60;;;9.80;99.90;;;;;;4751690;30;20043;-81
2023/04/07 11:29:03;;;;;;;4.30;3.90;;;9.70;99.90;;;;;;4765366;30;20063;-81
2023/04/07 11:31:30;;;;;;;4.85;4.45;;;9.70;99.90;;;;;;4750374;30;20047;-81
2023/04/07 11:34:02;;;;;;;4.10;3.80;;;9.70;99.90;;;;;;4765842;30;20434;-80
2023/04/07 11:36:38;;;;;;;4.90;4.50;;;9.60;99.90;;;;;;4750159;30;20090;-80
2023/04/07 11:39:04;;;;;;;6.13;5.47;;;9.50;99.90;;;;;;4750592;30;20063;-80
2023/04/07 11:41:31;;;;;;;5.15;4.75;;;9.50;99.90;;;;;;4746362;30;20040;-81
2023/04/07 11:44:05;;;;;;;5.95;5.45;;;9.40;99.90;;;;;;4752845;30;20052;-80
2023/04/07 11:46:31;;;;;;;5.88;5.40;;;9.40;99.90;;;;;;4750665;30;20802;-80
2023/04/07 11:49:16;;;;;;;5.35;4.88;;;9.40;99.90;;;;;;4764675;30;20119;-80
2023/04/07 11:51:45;;;;;;;5.82;5.35;;;9.40;99.90;;;;;;4750026;30;20044;-80
2023/04/07 11:54:11;;;;;;;6.10;5.53;;;9.40;99.90;;;;;;4749294;30;20059;-81
2023/04/07 11:56:46;;;;;;;5.93;4.72;;;9.40;99.90;;;;;;4751306;30;20050;-80
2023/04/07 11:59:25;;;;;;;5.30;4.90;;;9.50;99.90;;;;;;4765834;30;20131;-81
2023/04/07 12:01:52;;;;;;;5.40;5.00;;;9.50;99.90;;;;;;4750066;30;20044;-80
2023/04/07 12:04:18;;;;;;;5.75;5.25;;;9.50;99.90;;;;;;4750331;30;20152;-81
2023/04/07 12:06:45;;;;;;;5.30;4.90;;;9.50;99.90;;;;;;4765345;30;20048;-80
2023/04/07 12:09:31;;;;;;;5.45;4.95;;;9.50;99.90;;;;;;4766146;30;20043;-81
2023/04/07 12:11:57;;;;;;;6.88;5.60;;;9.50;99.90;;;;;;4750679;30;20135;-81
2023/04/07 12:14:26;;;;;;;6.22;5.63;;;9.40;99.90;;;;;;4751030;30;20063;-81
2023/04/07 12:16:55;;;;;;;6.38;5.88;;;9.50;99.90;;;;;;4764896;30;20079;-80
2023/04/07 12:19:27;;;;;;;6.28;5.78;;;9.50;99.90;;;;;;4748797;30;20051;-81
2023/04/07 12:21:53;;;;;;;7.35;6.65;;;9.50;99.90;;;;;;4746315;30;20369;-81
2023/04/07 12:24:20;;;;;;;6.70;5.85;;;9.50;99.90;;;;;;4766223;30;20051;-81
2023/04/07 12:26:46;;;;;;;6.72;6.20;;;9.50;99.90;;;;;;4750518;30;20051;-80
2023/04/07 12:29:12;;;;;;;6.60;6.00;;;9.50;99.90;;;;;;4749981;30;20055;-81
2023/04/07 12:31:38;;;;;;;6.90;6.30;;;9.50;99.90;;;;;;4764925;30;20071;-81
2023/04/07 12:34:04;;;;;;;6.47;5.88;;;9.50;99.90;;;;;;4768818;30;20795;-81
2023/04/07 12:36:30;;;;;;;6.50;5.90;;;9.50;99.90;;;;;;4767457;30;20504;-81
2023/04/07 12:38:56;;;;;;;6.60;6.00;;;9.60;99.90;;;;;;4766220;30;20052;-81
2023/04/07 12:41:23;;;;;;;6.75;6.15;;;9.60;99.90;;;;;;4767449;30;20125;-81